Great Notch, New Jersey
Current Conditions -  °F | °C
As of 12:39 AM on Thursday 27 Nov 2014 (Local Time) from KCDW Reporting Station
Overcast Overcast  
Wind Chill: 35°   Ceiling: 7500
Heat Index: 35°   Visibility: 10mi
Dew Point: 29°   Wind: 0mph
Humidity: 78%   Direction: NA
Pressure: 29.86"   Gusts: NA
Location:  40.8835°N, 74.2057°W
Report Text: KCDW 270539Z 00000KT 10SM SCT021 OVC075 02/M02 A2986 RMK AO2 T00171017
Loading
Personal Weather Stations






























Interactive Weather Map New forecast layout! Learn more

10-Day Weather Forecast

Advertisements
Track Severe Weather on mobile